sensor_id;sensor_type;location;lat;lon;timestamp;temperature;humidity
2603;DHT22;1311;47.966;7.958;2023-02-03T00:02:20;5.70;99.90
2603;DHT22;1311;47.966;7.958;2023-02-03T00:04:47;5.70;99.90
2603;DHT22;1311;47.966;7.958;2023-02-03T00:07:13;5.70;99.90
2603;DHT22;1311;47.966;7.958;2023-02-03T00:09:42;5.70;99.90
2603;DHT22;1311;47.966;7.958;2023-02-03T00:12:09;5.70;99.90
2603;DHT22;1311;47.966;7.958;2023-02-03T00:14:35;5.70;99.90
2603;DHT22;1311;47.966;7.958;2023-02-03T00:17:03;5.70;99.90
2603;DHT22;1311;47.966;7.958;2023-02-03T00:19:30;5.70;99.90
2603;DHT22;1311;47.966;7.958;2023-02-03T00:21:57;5.70;99.90
2603;DHT22;1311;47.966;7.958;2023-02-03T00:24:24;5.70;99.90
2603;DHT22;1311;47.966;7.958;2023-02-03T00:26:52;5.70;99.90
2603;DHT22;1311;47.966;7.958;2023-02-03T00:29:19;5.70;99.90
2603;DHT22;1311;47.966;7.958;2023-02-03T00:31:49;5.70;99.90
2603;DHT22;1311;47.966;7.958;2023-02-03T00:34:16;5.70;99.90
2603;DHT22;1311;47.966;7.958;2023-02-03T00:36:42;5.70;99.90
2603;DHT22;1311;47.966;7.958;2023-02-03T00:39:11;5.70;99.90
2603;DHT22;1311;47.966;7.958;2023-02-03T00:41:37;5.70;99.90
2603;DHT22;1311;47.966;7.958;2023-02-03T00:44:05;5.70;99.90
2603;DHT22;1311;47.966;7.958;2023-02-03T00:46:32;5.70;99.90
2603;DHT22;1311;47.966;7.958;2023-02-03T00:49:00;5.70;99.90
2603;DHT22;1311;47.966;7.958;2023-02-03T00:51:27;5.70;99.90
2603;DHT22;1311;47.966;7.958;2023-02-03T00:53:54;5.70;99.90
2603;DHT22;1311;47.966;7.958;2023-02-03T00:56:20;5.70;99.90
2603;DHT22;1311;47.966;7.958;2023-02-03T00:58:47;5.70;99.90
2603;DHT22;1311;47.966;7.958;2023-02-03T01:01:15;5.70;99.90
2603;DHT22;1311;47.966;7.958;2023-02-03T01:03:42;5.70;99.90
2603;DHT22;1311;47.966;7.958;2023-02-03T01:06:12;5.80;99.90
2603;DHT22;1311;47.966;7.958;2023-02-03T01:08:39;5.70;99.90
2603;DHT22;1311;47.966;7.958;2023-02-03T01:11:07;5.70;99.90
2603;DHT22;1311;47.966;7.958;2023-02-03T01:13:34;5.70;99.90
2603;DHT22;1311;47.966;7.958;2023-02-03T01:16:01;5.70;99.90
2603;DHT22;1311;47.966;7.958;2023-02-03T01:18:29;5.80;99.90
2603;DHT22;1311;47.966;7.958;2023-02-03T01:20:56;5.70;99.90
2603;DHT22;1311;47.966;7.958;2023-02-03T01:23:23;5.80;99.90
2603;DHT22;1311;47.966;7.958;2023-02-03T01:25:50;5.80;99.90
2603;DHT22;1311;47.966;7.958;2023-02-03T01:28:16;5.80;99.90
2603;DHT22;1311;47.966;7.958;2023-02-03T01:30:43;5.80;99.90
2603;DHT22;1311;47.966;7.958;2023-02-03T01:33:10;5.80;99.90
2603;DHT22;1311;47.966;7.958;2023-02-03T01:35:38;5.80;99.90
2603;DHT22;1311;47.966;7.958;2023-02-03T01:38:04;5.80;99.90
2603;DHT22;1311;47.966;7.958;2023-02-03T01:40:31;5.80;99.90
2603;DHT22;1311;47.966;7.958;2023-02-03T01:42:58;5.80;99.90
2603;DHT22;1311;47.966;7.958;2023-02-03T01:45:24;5.80;99.90
2603;DHT22;1311;47.966;7.958;2023-02-03T01:47:54;5.80;99.90
2603;DHT22;1311;47.966;7.958;2023-02-03T01:50:24;5.80;99.90
2603;DHT22;1311;47.966;7.958;2023-02-03T01:52:58;5.80;99.90
2603;DHT22;1311;47.966;7.958;2023-02-03T01:55:27;5.80;99.90
2603;DHT22;1311;47.966;7.958;2023-02-03T01:57:58;5.80;99.90
2603;DHT22;1311;47.966;7.958;2023-02-03T02:00:26;5.80;99.90
2603;DHT22;1311;47.966;7.958;2023-02-03T02:02:53;5.80;99.90
2603;DHT22;1311;47.966;7.958;2023-02-03T02:05:26;5.80;99.90
2603;DHT22;1311;47.966;7.958;2023-02-03T02:07:57;5.80;99.90
2603;DHT22;1311;47.966;7.958;2023-02-03T02:10:25;5.80;99.90
2603;DHT22;1311;47.966;7.958;2023-02-03T02:12:53;5.80;99.90
2603;DHT22;1311;47.966;7.958;2023-02-03T02:15:22;5.80;99.90
2603;DHT22;1311;47.966;7.958;2023-02-03T02:18:10;5.80;99.90
2603;DHT22;1311;47.966;7.958;2023-02-03T02:21:04;5.80;99.90
2603;DHT22;1311;47.966;7.958;2023-02-03T02:26:53;5.90;99.90
2603;DHT22;1311;47.966;7.958;2023-02-03T02:29:55;5.80;99.90
2603;DHT22;1311;47.966;7.958;2023-02-03T02:32:39;5.80;99.90
2603;DHT22;1311;47.966;7.958;2023-02-03T02:35:13;5.90;99.90
2603;DHT22;1311;47.966;7.958;2023-02-03T02:37:48;5.90;99.90
2603;DHT22;1311;47.966;7.958;2023-02-03T02:40:22;5.90;99.90
2603;DHT22;1311;47.966;7.958;2023-02-03T02:43:00;5.90;99.90
2603;DHT22;1311;47.966;7.958;2023-02-03T02:45:32;5.90;99.90
2603;DHT22;1311;47.966;7.958;2023-02-03T02:48:05;5.90;99.90
2603;DHT22;1311;47.966;7.958;2023-02-03T02:50:37;5.90;99.90
2603;DHT22;1311;47.966;7.958;2023-02-03T02:53:07;5.90;99.90
2603;DHT22;1311;47.966;7.958;2023-02-03T02:55:36;5.90;99.90
2603;DHT22;1311;47.966;7.958;2023-02-03T02:58:07;5.90;99.90
2603;DHT22;1311;47.966;7.958;2023-02-03T03:00:36;5.90;99.90
2603;DHT22;1311;47.966;7.958;2023-02-03T03:03:17;5.90;99.90
2603;DHT22;1311;47.966;7.958;2023-02-03T03:05:49;5.90;99.90
2603;DHT22;1311;47.966;7.958;2023-02-03T03:08:19;5.90;99.90
2603;DHT22;1311;47.966;7.958;2023-02-03T03:10:48;5.90;99.90
2603;DHT22;1311;47.966;7.958;2023-02-03T03:13:23;5.80;99.90
2603;DHT22;1311;47.966;7.958;2023-02-03T03:15:51;5.70;99.90
2603;DHT22;1311;47.966;7.958;2023-02-03T03:18:23;5.60;99.90
2603;DHT22;1311;47.966;7.958;2023-02-03T03:20:54;5.50;99.90
2603;DHT22;1311;47.966;7.958;2023-02-03T03:23:25;5.60;99.90
2603;DHT22;1311;47.966;7.958;2023-02-03T03:25:59;5.60;99.90
2603;DHT22;1311;47.966;7.958;2023-02-03T03:28:29;5.60;99.90
2603;DHT22;1311;47.966;7.958;2023-02-03T03:30:58;5.60;99.90
2603;DHT22;1311;47.966;7.958;2023-02-03T03:33:26;5.60;99.90
2603;DHT22;1311;47.966;7.958;2023-02-03T03:35:59;5.50;99.90
2603;DHT22;1311;47.966;7.958;2023-02-03T03:38:32;5.50;99.90
2603;DHT22;1311;47.966;7.958;2023-02-03T03:41:04;5.50;99.90
2603;DHT22;1311;47.966;7.958;2023-02-03T03:43:35;5.50;99.90
2603;DHT22;1311;47.966;7.958;2023-02-03T03:46:08;5.60;99.90
2603;DHT22;1311;47.966;7.958;2023-02-03T03:48:43;5.60;99.90
2603;DHT22;1311;47.966;7.958;2023-02-03T03:51:17;5.60;99.90
2603;DHT22;1311;47.966;7.958;2023-02-03T03:53:46;5.60;99.90
2603;DHT22;1311;47.966;7.958;2023-02-03T03:56:21;5.50;99.90
2603;DHT22;1311;47.966;7.958;2023-02-03T03:58:51;5.40;99.90
2603;DHT22;1311;47.966;7.958;2023-02-03T04:01:19;5.40;99.90
2603;DHT22;1311;47.966;7.958;2023-02-03T04:03:51;5.30;99.90
2603;DHT22;1311;47.966;7.958;2023-02-03T04:06:19;5.40;99.90
2603;DHT22;1311;47.966;7.958;2023-02-03T04:08:46;5.40;99.90
2603;DHT22;1311;47.966;7.958;2023-02-03T04:11:13;5.50;99.90
2603;DHT22;1311;47.966;7.958;2023-02-03T04:14:00;5.50;99.90
2603;DHT22;1311;47.966;7.958;2023-02-03T04:16:31;5.50;99.90
2603;DHT22;1311;47.966;7.958;2023-02-03T04:18:59;5.50;99.90
2603;DHT22;1311;47.966;7.958;2023-02-03T04:21:26;5.40;99.90
2603;DHT22;1311;47.966;7.958;2023-02-03T04:23:53;5.40;99.90
2603;DHT22;1311;47.966;7.958;2023-02-03T04:26:21;5.30;99.90
2603;DHT22;1311;47.966;7.958;2023-02-03T04:28:47;5.30;99.90
2603;DHT22;1311;47.966;7.958;2023-02-03T04:31:15;5.30;99.90
2603;DHT22;1311;47.966;7.958;2023-02-03T04:33:42;5.30;99.90
2603;DHT22;1311;47.966;7.958;2023-02-03T04:36:10;5.30;99.90
2603;DHT22;1311;47.966;7.958;2023-02-03T04:38:36;5.30;99.90
2603;DHT22;1311;47.966;7.958;2023-02-03T04:41:03;5.30;99.90
2603;DHT22;1311;47.966;7.958;2023-02-03T04:43:30;5.30;99.90
2603;DHT22;1311;47.966;7.958;2023-02-03T04:45:58;5.30;99.90
2603;DHT22;1311;47.966;7.958;2023-02-03T04:48:25;5.30;99.90
2603;DHT22;1311;47.966;7.958;2023-02-03T04:50:52;5.30;99.90
2603;DHT22;1311;47.966;7.958;2023-02-03T04:53:20;5.40;99.90
2603;DHT22;1311;47.966;7.958;2023-02-03T04:55:47;5.50;99.90
2603;DHT22;1311;47.966;7.958;2023-02-03T04:58:14;5.50;99.90
2603;DHT22;1311;47.966;7.958;2023-02-03T05:00:41;5.60;99.90
2603;DHT22;1311;47.966;7.958;2023-02-03T05:03:07;5.70;99.90
2603;DHT22;1311;47.966;7.958;2023-02-03T05:05:34;5.60;99.90
2603;DHT22;1311;47.966;7.958;2023-02-03T05:08:01;5.70;99.90
2603;DHT22;1311;47.966;7.958;2023-02-03T05:10:30;5.70;99.90
2603;DHT22;1311;47.966;7.958;2023-02-03T05:12:57;5.70;99.90
2603;DHT22;1311;47.966;7.958;2023-02-03T05:15:23;5.70;99.90
2603;DHT22;1311;47.966;7.958;2023-02-03T05:17:51;5.70;99.90
2603;DHT22;1311;47.966;7.958;2023-02-03T05:20:18;5.80;99.90
2603;DHT22;1311;47.966;7.958;2023-02-03T05:22:44;5.80;99.90
2603;DHT22;1311;47.966;7.958;2023-02-03T05:25:11;5.80;99.90
2603;DHT22;1311;47.966;7.958;2023-02-03T05:27:40;5.80;99.90
2603;DHT22;1311;47.966;7.958;2023-02-03T05:30:09;5.80;99.90
2603;DHT22;1311;47.966;7.958;2023-02-03T05:32:35;5.80;99.90
2603;DHT22;1311;47.966;7.958;2023-02-03T05:35:02;5.80;99.90
2603;DHT22;1311;47.966;7.958;2023-02-03T05:37:29;5.80;99.90
2603;DHT22;1311;47.966;7.958;2023-02-03T05:39:56;5.80;99.90
2603;DHT22;1311;47.966;7.958;2023-02-03T05:42:48;5.90;99.90
2603;DHT22;1311;47.966;7.958;2023-02-03T05:45:14;5.90;99.90
2603;DHT22;1311;47.966;7.958;2023-02-03T05:47:41;5.90;99.90
2603;DHT22;1311;47.966;7.958;2023-02-03T05:50:08;5.90;99.90
2603;DHT22;1311;47.966;7.958;2023-02-03T05:52:35;5.90;99.90
2603;DHT22;1311;47.966;7.958;2023-02-03T05:55:03;5.90;99.90
2603;DHT22;1311;47.966;7.958;2023-02-03T05:57:29;5.90;99.90
2603;DHT22;1311;47.966;7.958;2023-02-03T05:59:57;5.90;99.90
2603;DHT22;1311;47.966;7.958;2023-02-03T06:02:24;5.90;99.90
2603;DHT22;1311;47.966;7.958;2023-02-03T06:04:51;5.90;99.90
2603;DHT22;1311;47.966;7.958;2023-02-03T06:07:17;5.90;99.90
2603;DHT22;1311;47.966;7.958;2023-02-03T06:09:44;5.90;99.90
2603;DHT22;1311;47.966;7.958;2023-02-03T06:12:11;5.90;99.90
2603;DHT22;1311;47.966;7.958;2023-02-03T06:14:38;5.90;99.90
2603;DHT22;1311;47.966;7.958;2023-02-03T06:17:06;6.00;99.90
2603;DHT22;1311;47.966;7.958;2023-02-03T06:19:33;6.00;99.90
2603;DHT22;1311;47.966;7.958;2023-02-03T06:22:00;5.90;99.90
2603;DHT22;1311;47.966;7.958;2023-02-03T06:24:26;6.00;99.90
2603;DHT22;1311;47.966;7.958;2023-02-03T06:26:53;6.00;99.90
2603;DHT22;1311;47.966;7.958;2023-02-03T06:29:20;6.00;99.90
2603;DHT22;1311;47.966;7.958;2023-02-03T06:31:47;6.00;99.90
2603;DHT22;1311;47.966;7.958;2023-02-03T06:34:15;6.00;99.90
2603;DHT22;1311;47.966;7.958;2023-02-03T06:36:41;6.00;99.90
2603;DHT22;1311;47.966;7.958;2023-02-03T06:39:08;6.00;99.90
2603;DHT22;1311;47.966;7.958;2023-02-03T06:41:35;6.00;99.90
2603;DHT22;1311;47.966;7.958;2023-02-03T06:44:02;6.00;99.90
2603;DHT22;1311;47.966;7.958;2023-02-03T06:46:28;6.00;99.90
2603;DHT22;1311;47.966;7.958;2023-02-03T06:48:55;6.00;99.90
2603;DHT22;1311;47.966;7.958;2023-02-03T06:51:23;6.00;99.90
2603;DHT22;1311;47.966;7.958;2023-02-03T06:53:50;6.00;99.90
2603;DHT22;1311;47.966;7.958;2023-02-03T06:56:17;6.00;99.90
2603;DHT22;1311;47.966;7.958;2023-02-03T06:58:44;6.00;99.90
2603;DHT22;1311;47.966;7.958;2023-02-03T07:01:10;6.00;99.90
2603;DHT22;1311;47.966;7.958;2023-02-03T07:03:37;6.00;99.90
2603;DHT22;1311;47.966;7.958;2023-02-03T07:06:05;6.00;99.90
2603;DHT22;1311;47.966;7.958;2023-02-03T07:08:33;6.00;99.90
2603;DHT22;1311;47.966;7.958;2023-02-03T07:11:00;6.00;99.90
2603;DHT22;1311;47.966;7.958;2023-02-03T07:13:26;6.00;99.90
2603;DHT22;1311;47.966;7.958;2023-02-03T07:15:53;6.00;99.90
2603;DHT22;1311;47.966;7.958;2023-02-03T07:18:20;5.90;99.90
2603;DHT22;1311;47.966;7.958;2023-02-03T07:20:49;6.00;99.90
2603;DHT22;1311;47.966;7.958;2023-02-03T07:23:16;6.00;99.90
2603;DHT22;1311;47.966;7.958;2023-02-03T07:25:44;5.90;99.90
2603;DHT22;1311;47.966;7.958;2023-02-03T07:28:11;6.00;99.90
2603;DHT22;1311;47.966;7.958;2023-02-03T07:30:37;6.00;99.90
2603;DHT22;1311;47.966;7.958;2023-02-03T07:33:04;6.00;99.90
2603;DHT22;1311;47.966;7.958;2023-02-03T07:35:32;6.00;99.90
2603;DHT22;1311;47.966;7.958;2023-02-03T07:38:00;6.10;99.90
2603;DHT22;1311;47.966;7.958;2023-02-03T07:40:26;6.10;99.90
2603;DHT22;1311;47.966;7.958;2023-02-03T07:42:54;6.10;99.90
2603;DHT22;1311;47.966;7.958;2023-02-03T07:45:21;6.20;99.90
2603;DHT22;1311;47.966;7.958;2023-02-03T07:47:49;6.20;99.90
2603;DHT22;1311;47.966;7.958;2023-02-03T07:50:16;6.20;99.90
2603;DHT22;1311;47.966;7.958;2023-02-03T07:52:42;6.20;99.90
2603;DHT22;1311;47.966;7.958;2023-02-03T07:55:09;6.30;99.90
2603;DHT22;1311;47.966;7.958;2023-02-03T07:57:36;6.30;99.90
2603;DHT22;1311;47.966;7.958;2023-02-03T08:00:10;6.30;99.90
2603;DHT22;1311;47.966;7.958;2023-02-03T08:02:37;6.40;99.90
2603;DHT22;1311;47.966;7.958;2023-02-03T08:05:04;6.40;99.90
2603;DHT22;1311;47.966;7.958;2023-02-03T08:07:31;6.50;99.90
2603;DHT22;1311;47.966;7.958;2023-02-03T08:09:57;6.60;99.90
2603;DHT22;1311;47.966;7.958;2023-02-03T08:12:24;6.60;99.90
2603;DHT22;1311;47.966;7.958;2023-02-03T08:14:51;6.60;99.90
2603;DHT22;1311;47.966;7.958;2023-02-03T08:17:19;6.70;99.90
2603;DHT22;1311;47.966;7.958;2023-02-03T08:19:46;6.70;99.90
2603;DHT22;1311;47.966;7.958;2023-02-03T08:22:13;6.80;99.90
2603;DHT22;1311;47.966;7.958;2023-02-03T08:24:41;6.80;99.90
2603;DHT22;1311;47.966;7.958;2023-02-03T08:27:10;6.80;99.90
2603;DHT22;1311;47.966;7.958;2023-02-03T08:29:37;6.80;99.90
2603;DHT22;1311;47.966;7.958;2023-02-03T08:32:04;6.80;99.90
2603;DHT22;1311;47.966;7.958;2023-02-03T08:34:32;6.80;99.90
2603;DHT22;1311;47.966;7.958;2023-02-03T08:36:59;6.90;99.90
2603;DHT22;1311;47.966;7.958;2023-02-03T08:39:25;6.90;99.90
2603;DHT22;1311;47.966;7.958;2023-02-03T08:41:52;6.90;99.90
2603;DHT22;1311;47.966;7.958;2023-02-03T08:44:19;6.80;99.90
2603;DHT22;1311;47.966;7.958;2023-02-03T08:46:48;6.80;99.90
2603;DHT22;1311;47.966;7.958;2023-02-03T08:49:15;6.70;99.90
2603;DHT22;1311;47.966;7.958;2023-02-03T08:51:44;6.70;99.90
2603;DHT22;1311;47.966;7.958;2023-02-03T08:54:11;6.70;99.90
2603;DHT22;1311;47.966;7.958;2023-02-03T08:56:38;6.70;99.90
2603;DHT22;1311;47.966;7.958;2023-02-03T08:59:05;6.70;99.90
2603;DHT22;1311;47.966;7.958;2023-02-03T09:01:34;6.80;99.90
2603;DHT22;1311;47.966;7.958;2023-02-03T09:04:01;7.00;99.90
2603;DHT22;1311;47.966;7.958;2023-02-03T09:06:33;7.20;99.90
2603;DHT22;1311;47.966;7.958;2023-02-03T09:09:02;7.60;99.90
2603;DHT22;1311;47.966;7.958;2023-02-03T09:11:29;7.90;99.90
2603;DHT22;1311;47.966;7.958;2023-02-03T09:13:56;7.80;99.90
2603;DHT22;1311;47.966;7.958;2023-02-03T09:16:23;8.00;99.90
2603;DHT22;1311;47.966;7.958;2023-02-03T09:18:51;8.20;99.90
2603;DHT22;1311;47.966;7.958;2023-02-03T09:21:17;8.00;99.90
2603;DHT22;1311;47.966;7.958;2023-02-03T09:23:44;7.90;99.90
2603;DHT22;1311;47.966;7.958;2023-02-03T09:26:14;7.90;99.90
2603;DHT22;1311;47.966;7.958;2023-02-03T09:28:41;7.80;99.90
2603;DHT22;1311;47.966;7.958;2023-02-03T09:31:09;7.80;99.90
2603;DHT22;1311;47.966;7.958;2023-02-03T09:33:36;7.80;99.90
2603;DHT22;1311;47.966;7.958;2023-02-03T09:36:04;7.80;99.90
2603;DHT22;1311;47.966;7.958;2023-02-03T09:38:32;7.90;99.90
2603;DHT22;1311;47.966;7.958;2023-02-03T09:41:02;7.90;99.90
2603;DHT22;1311;47.966;7.958;2023-02-03T09:43:34;7.90;99.90
2603;DHT22;1311;47.966;7.958;2023-02-03T09:46:06;7.90;99.90
2603;DHT22;1311;47.966;7.958;2023-02-03T09:48:37;8.00;99.90
2603;DHT22;1311;47.966;7.958;2023-02-03T09:51:07;8.10;99.90
2603;DHT22;1311;47.966;7.958;2023-02-03T09:53:44;8.20;99.90
2603;DHT22;1311;47.966;7.958;2023-02-03T09:56:22;8.20;99.90
2603;DHT22;1311;47.966;7.958;2023-02-03T09:58:53;8.30;99.90
2603;DHT22;1311;47.966;7.958;2023-02-03T10:01:20;8.20;99.90
2603;DHT22;1311;47.966;7.958;2023-02-03T10:03:52;8.30;99.90
2603;DHT22;1311;47.966;7.958;2023-02-03T10:06:29;8.50;99.90
2603;DHT22;1311;47.966;7.958;2023-02-03T10:09:19;8.60;99.90
2603;DHT22;1311;47.966;7.958;2023-02-03T10:12:15;8.70;99.90
2603;DHT22;1311;47.966;7.958;2023-02-03T10:14:55;8.90;99.90
2603;DHT22;1311;47.966;7.958;2023-02-03T10:17:29;9.00;99.90
2603;DHT22;1311;47.966;7.958;2023-02-03T10:20:02;9.10;99.90
2603;DHT22;1311;47.966;7.958;2023-02-03T10:22:33;9.20;99.90
2603;DHT22;1311;47.966;7.958;2023-02-03T10:25:06;9.10;99.90
2603;DHT22;1311;47.966;7.958;2023-02-03T10:27:37;9.50;99.90
2603;DHT22;1311;47.966;7.958;2023-02-03T10:30:18;9.50;99.90
2603;DHT22;1311;47.966;7.958;2023-02-03T10:32:48;9.60;99.90
2603;DHT22;1311;47.966;7.958;2023-02-03T10:35:15;9.80;99.90
2603;DHT22;1311;47.966;7.958;2023-02-03T10:37:44;10.20;99.90
2603;DHT22;1311;47.966;7.958;2023-02-03T10:40:14;10.50;99.90
2603;DHT22;1311;47.966;7.958;2023-02-03T10:42:42;10.60;99.90
2603;DHT22;1311;47.966;7.958;2023-02-03T10:45:30;10.50;99.90
2603;DHT22;1311;47.966;7.958;2023-02-03T10:47:59;10.10;99.90
2603;DHT22;1311;47.966;7.958;2023-02-03T10:50:27;10.10;99.90
2603;DHT22;1311;47.966;7.958;2023-02-03T10:53:18;10.60;99.90
2603;DHT22;1311;47.966;7.958;2023-02-03T10:55:48;10.70;99.90
2603;DHT22;1311;47.966;7.958;2023-02-03T10:58:18;10.70;99.90
2603;DHT22;1311;47.966;7.958;2023-02-03T11:00:54;10.40;99.90
2603;DHT22;1311;47.966;7.958;2023-02-03T11:03:24;10.40;99.90
2603;DHT22;1311;47.966;7.958;2023-02-03T11:06:06;10.60;99.90
2603;DHT22;1311;47.966;7.958;2023-02-03T11:08:34;10.50;99.90
2603;DHT22;1311;47.966;7.958;2023-02-03T11:11:03;10.60;99.90
2603;DHT22;1311;47.966;7.958;2023-02-03T11:13:30;10.50;99.90
2603;DHT22;1311;47.966;7.958;2023-02-03T11:16:00;10.50;99.90
2603;DHT22;1311;47.966;7.958;2023-02-03T11:18:46;10.60;99.90
2603;DHT22;1311;47.966;7.958;2023-02-03T11:21:19;10.30;99.90
2603;DHT22;1311;47.966;7.958;2023-02-03T11:24:00;10.10;99.90
2603;DHT22;1311;47.966;7.958;2023-02-03T11:26:31;10.30;99.90
2603;DHT22;1311;47.966;7.958;2023-02-03T11:29:00;10.20;99.90
2603;DHT22;1311;47.966;7.958;2023-02-03T11:31:31;10.20;99.90
2603;DHT22;1311;47.966;7.958;2023-02-03T11:34:02;10.20;99.90
2603;DHT22;1311;47.966;7.958;2023-02-03T11:36:31;10.60;99.90
2603;DHT22;1311;47.966;7.958;2023-02-03T11:39:09;10.50;99.90
2603;DHT22;1311;47.966;7.958;2023-02-03T11:41:37;10.50;99.90
2603;DHT22;1311;47.966;7.958;2023-02-03T11:44:11;10.70;99.90
2603;DHT22;1311;47.966;7.958;2023-02-03T11:46:40;10.60;99.90
2603;DHT22;1311;47.966;7.958;2023-02-03T11:52:05;10.50;99.90
2603;DHT22;1311;47.966;7.958;2023-02-03T11:54:40;10.60;99.90
2603;DHT22;1311;47.966;7.958;2023-02-03T11:57:24;10.80;99.90
2603;DHT22;1311;47.966;7.958;2023-02-03T12:00:08;10.90;99.90
2603;DHT22;1311;47.966;7.958;2023-02-03T12:03:10;10.80;99.90
2603;DHT22;1311;47.966;7.958;2023-02-03T12:06:07;11.20;99.90
2603;DHT22;1311;47.966;7.958;2023-02-03T12:09:05;11.30;99.90
2603;DHT22;1311;47.966;7.958;2023-02-03T12:11:47;11.40;99.90
2603;DHT22;1311;47.966;7.958;2023-02-03T12:14:35;11.30;99.90
2603;DHT22;1311;47.966;7.958;2023-02-03T12:17:30;11.40;99.90
2603;DHT22;1311;47.966;7.958;2023-02-03T12:20:19;11.10;99.90
2603;DHT22;1311;47.966;7.958;2023-02-03T12:22:53;11.10;99.90
2603;DHT22;1311;47.966;7.958;2023-02-03T12:25:31;10.80;99.90
2603;DHT22;1311;47.966;7.958;2023-02-03T12:28:07;10.70;99.90
2603;DHT22;1311;47.966;7.958;2023-02-03T12:30:38;10.50;99.90
2603;DHT22;1311;47.966;7.958;2023-02-03T12:33:12;10.60;99.90
2603;DHT22;1311;47.966;7.958;2023-02-03T12:35:46;10.50;99.90
2603;DHT22;1311;47.966;7.958;2023-02-03T12:38:20;10.60;99.90
2603;DHT22;1311;47.966;7.958;2023-02-03T12:40:54;10.30;99.90
2603;DHT22;1311;47.966;7.958;2023-02-03T12:43:27;10.10;99.90
2603;DHT22;1311;47.966;7.958;2023-02-03T12:45:59;9.90;99.90
2603;DHT22;1311;47.966;7.958;2023-02-03T12:48:32;10.00;99.90
2603;DHT22;1311;47.966;7.958;2023-02-03T12:51:05;10.10;99.90
2603;DHT22;1311;47.966;7.958;2023-02-03T12:53:36;10.30;99.90
2603;DHT22;1311;47.966;7.958;2023-02-03T12:56:07;10.60;99.90
2603;DHT22;1311;47.966;7.958;2023-02-03T12:58:38;10.40;99.90
2603;DHT22;1311;47.966;7.958;2023-02-03T13:01:08;10.10;99.90
2603;DHT22;1311;47.966;7.958;2023-02-03T13:03:41;10.10;99.90
2603;DHT22;1311;47.966;7.958;2023-02-03T13:06:16;9.80;99.90
2603;DHT22;1311;47.966;7.958;2023-02-03T13:08:52;9.70;99.90
2603;DHT22;1311;47.966;7.958;2023-02-03T13:11:23;9.70;99.90
2603;DHT22;1311;47.966;7.958;2023-02-03T13:13:55;9.80;99.90
2603;DHT22;1311;47.966;7.958;2023-02-03T13:16:25;9.70;99.90
2603;DHT22;1311;47.966;7.958;2023-02-03T13:18:58;9.70;99.90
2603;DHT22;1311;47.966;7.958;2023-02-03T13:21:27;9.60;99.90
2603;DHT22;1311;47.966;7.958;2023-02-03T13:23:54;9.40;99.90
2603;DHT22;1311;47.966;7.958;2023-02-03T13:26:50;9.30;99.90
2603;DHT22;1311;47.966;7.958;2023-02-03T13:29:38;9.40;99.90
2603;DHT22;1311;47.966;7.958;2023-02-03T13:32:17;9.30;99.90
2603;DHT22;1311;47.966;7.958;2023-02-03T13:35:14;9.30;99.90
2603;DHT22;1311;47.966;7.958;2023-02-03T13:38:06;9.30;99.90
2603;DHT22;1311;47.966;7.958;2023-02-03T13:40:44;9.20;99.90
2603;DHT22;1311;47.966;7.958;2023-02-03T13:43:16;9.10;99.90
2603;DHT22;1311;47.966;7.958;2023-02-03T13:45:47;9.10;99.90
2603;DHT22;1311;47.966;7.958;2023-02-03T13:48:17;9.10;99.90
2603;DHT22;1311;47.966;7.958;2023-02-03T13:50:47;9.10;99.90
2603;DHT22;1311;47.966;7.958;2023-02-03T13:53:19;8.90;99.90
2603;DHT22;1311;47.966;7.958;2023-02-03T13:55:52;8.90;99.90
2603;DHT22;1311;47.966;7.958;2023-02-03T13:58:21;8.80;99.90
2603;DHT22;1311;47.966;7.958;2023-02-03T14:01:02;8.70;99.90
2603;DHT22;1311;47.966;7.958;2023-02-03T14:03:41;8.70;99.90
2603;DHT22;1311;47.966;7.958;2023-02-03T14:09:45;8.50;99.90
2603;DHT22;1311;47.966;7.958;2023-02-03T14:15:19;8.50;99.90
2603;DHT22;1311;47.966;7.958;2023-02-03T14:18:09;8.50;99.90
2603;DHT22;1311;47.966;7.958;2023-02-03T14:21:10;8.40;99.90
2603;DHT22;1311;47.966;7.958;2023-02-03T14:23:56;8.40;99.90
2603;DHT22;1311;47.966;7.958;2023-02-03T14:26:35;8.30;99.90
2603;DHT22;1311;47.966;7.958;2023-02-03T14:29:04;8.20;99.90
2603;DHT22;1311;47.966;7.958;2023-02-03T14:31:51;8.10;99.90
2603;DHT22;1311;47.966;7.958;2023-02-03T14:34:28;8.10;99.90
2603;DHT22;1311;47.966;7.958;2023-02-03T14:36:55;8.00;99.90
2603;DHT22;1311;47.966;7.958;2023-02-03T14:42:33;7.90;99.90
2603;DHT22;1311;47.966;7.958;2023-02-03T14:45:11;7.80;99.90
2603;DHT22;1311;47.966;7.958;2023-02-03T14:50:25;7.80;99.90
2603;DHT22;1311;47.966;7.958;2023-02-03T14:55:52;7.70;99.90
2603;DHT22;1311;47.966;7.958;2023-02-03T14:58:33;7.70;99.90
2603;DHT22;1311;47.966;7.958;2023-02-03T15:01:03;7.70;99.90
2603;DHT22;1311;47.966;7.958;2023-02-03T15:03:33;7.70;99.90
2603;DHT22;1311;47.966;7.958;2023-02-03T15:06:03;7.60;99.90
2603;DHT22;1311;47.966;7.958;2023-02-03T15:08:37;7.60;99.90
2603;DHT22;1311;47.966;7.958;2023-02-03T15:11:24;7.60;99.90
2603;DHT22;1311;47.966;7.958;2023-02-03T15:13:55;7.60;99.90
2603;DHT22;1311;47.966;7.958;2023-02-03T15:16:23;7.50;99.90
2603;DHT22;1311;47.966;7.958;2023-02-03T15:18:56;7.50;99.90
2603;DHT22;1311;47.966;7.958;2023-02-03T15:21:24;7.50;99.90
2603;DHT22;1311;47.966;7.958;2023-02-03T15:23:52;7.50;99.90
2603;DHT22;1311;47.966;7.958;2023-02-03T15:26:22;7.50;99.90
2603;DHT22;1311;47.966;7.958;2023-02-03T15:28:58;7.40;99.90
2603;DHT22;1311;47.966;7.958;2023-02-03T15:31:30;7.40;99.90
2603;DHT22;1311;47.966;7.958;2023-02-03T15:34:05;7.40;99.90
2603;DHT22;1311;47.966;7.958;2023-02-03T15:36:40;7.40;99.90
2603;DHT22;1311;47.966;7.958;2023-02-03T15:39:20;7.40;99.90
2603;DHT22;1311;47.966;7.958;2023-02-03T15:41:50;7.30;99.90
2603;DHT22;1311;47.966;7.958;2023-02-03T15:44:27;7.30;99.90
2603;DHT22;1311;47.966;7.958;2023-02-03T15:46:56;7.30;99.90
2603;DHT22;1311;47.966;7.958;2023-02-03T15:49:26;7.30;99.90
2603;DHT22;1311;47.966;7.958;2023-02-03T15:52:00;7.30;99.90
2603;DHT22;1311;47.966;7.958;2023-02-03T15:54:30;7.20;99.90
2603;DHT22;1311;47.966;7.958;2023-02-03T15:57:07;7.30;99.90
2603;DHT22;1311;47.966;7.958;2023-02-03T15:59:40;7.20;99.90
2603;DHT22;1311;47.966;7.958;2023-02-03T16:02:13;7.20;99.90
2603;DHT22;1311;47.966;7.958;2023-02-03T16:04:42;7.20;99.90
2603;DHT22;1311;47.966;7.958;2023-02-03T16:07:19;7.20;99.90
2603;DHT22;1311;47.966;7.958;2023-02-03T16:10:01;7.20;99.90
2603;DHT22;1311;47.966;7.958;2023-02-03T16:12:35;7.20;99.90
2603;DHT22;1311;47.966;7.958;2023-02-03T16:15:31;7.20;99.90
2603;DHT22;1311;47.966;7.958;2023-02-03T16:18:03;7.10;99.90
2603;DHT22;1311;47.966;7.958;2023-02-03T16:20:34;7.10;99.90
2603;DHT22;1311;47.966;7.958;2023-02-03T16:23:21;7.10;99.90
2603;DHT22;1311;47.966;7.958;2023-02-03T16:26:28;7.10;99.90
2603;DHT22;1311;47.966;7.958;2023-02-03T16:29:11;7.10;99.90
2603;DHT22;1311;47.966;7.958;2023-02-03T16:32:17;7.10;99.90
2603;DHT22;1311;47.966;7.958;2023-02-03T16:35:06;7.10;99.90
2603;DHT22;1311;47.966;7.958;2023-02-03T16:38:16;7.10;99.90
2603;DHT22;1311;47.966;7.958;2023-02-03T16:41:22;7.10;99.90
2603;DHT22;1311;47.966;7.958;2023-02-03T16:44:19;7.10;99.90
2603;DHT22;1311;47.966;7.958;2023-02-03T16:47:20;7.10;99.90
2603;DHT22;1311;47.966;7.958;2023-02-03T16:50:11;7.10;99.90
2603;DHT22;1311;47.966;7.958;2023-02-03T16:53:23;7.10;99.90
2603;DHT22;1311;47.966;7.958;2023-02-03T16:55:54;7.10;99.90
2603;DHT22;1311;47.966;7.958;2023-02-03T16:58:24;7.10;99.90
2603;DHT22;1311;47.966;7.958;2023-02-03T17:00:52;7.10;99.90
2603;DHT22;1311;47.966;7.958;2023-02-03T17:03:24;7.10;99.90
2603;DHT22;1311;47.966;7.958;2023-02-03T17:05:53;7.10;99.90
2603;DHT22;1311;47.966;7.958;2023-02-03T17:08:24;7.10;99.90